createdAt,value
2022-10-06T00:00:37.780Z,100354.28
2022-10-06T00:03:28.129Z,100345.16
2022-10-06T00:06:03.416Z,100347.55
2022-10-06T00:08:37.760Z,100350.46
2022-10-06T00:11:11.155Z,100352.86
2022-10-06T00:13:43.445Z,100351.52
2022-10-06T00:16:17.628Z,100353.73
2022-10-06T00:18:49.647Z,100352.07
2022-10-06T00:21:21.874Z,100350.54
2022-10-06T00:23:52.275Z,100353.30
2022-10-06T00:26:24.308Z,100356.11
2022-10-06T00:28:54.757Z,100355.26
2022-10-06T00:31:26.906Z,100356.05
2022-10-06T00:33:57.217Z,100360.53
2022-10-06T00:36:29.408Z,100358.30
2022-10-06T00:39:01.325Z,100361.03
2022-10-06T00:41:33.682Z,100362.79
2022-10-06T00:44:03.976Z,100363.35
2022-10-06T00:46:40.940Z,100360.62
2022-10-06T00:49:18.213Z,100368.66
2022-10-06T00:51:54.108Z,100369.98
2022-10-06T00:54:26.655Z,100365.00
2022-10-06T00:56:59.054Z,100368.73
2022-10-06T00:59:29.375Z,100363.60
2022-10-06T01:02:08.460Z,100357.13
2022-10-06T01:04:46.099Z,100359.24
2022-10-06T01:07:20.548Z,100357.90
2022-10-06T01:09:52.655Z,100359.50
2022-10-06T01:12:25.561Z,100357.98
2022-10-06T01:14:58.560Z,100360.79
2022-10-06T01:17:37.084Z,100362.22
2022-10-06T01:20:13.060Z,100360.64
2022-10-06T01:22:47.619Z,100361.46
2022-10-06T01:25:21.537Z,100363.98
2022-10-06T01:27:55.227Z,100363.38
2022-10-06T01:30:37.476Z,100363.17
2022-10-06T01:33:09.453Z,100365.48
2022-10-06T01:35:41.706Z,100367.38
2022-10-06T01:38:13.926Z,100362.02
2022-10-06T01:40:46.430Z,100361.44
2022-10-06T01:43:18.384Z,100362.94
2022-10-06T01:45:52.946Z,100360.38
2022-10-06T01:48:25.955Z,100360.24
2022-10-06T01:50:58.754Z,100362.47
2022-10-06T01:53:29.971Z,100364.73
2022-10-06T01:56:02.558Z,100364.55
2022-10-06T01:58:36.076Z,100364.67
2022-10-06T02:01:11.383Z,100364.42
2022-10-06T02:03:43.632Z,100365.45
2022-10-06T02:06:15.663Z,100362.55
2022-10-06T02:08:48.765Z,100363.86
2022-10-06T02:11:22.457Z,100363.52
2022-10-06T02:13:55.037Z,100364.67
2022-10-06T02:16:25.614Z,100367.23
2022-10-06T02:18:57.607Z,100371.27
2022-10-06T02:21:29.538Z,100369.66
2022-10-06T02:24:01.429Z,100366.84
2022-10-06T02:26:33.465Z,100369.01
2022-10-06T02:29:05.288Z,100366.65
2022-10-06T02:31:36.050Z,100367.42
2022-10-06T02:34:07.979Z,100370.95
2022-10-06T02:36:38.535Z,100369.02
2022-10-06T02:39:11.253Z,100371.52
2022-10-06T02:41:43.437Z,100375.45
2022-10-06T02:44:15.731Z,100374.77
2022-10-06T02:46:49.261Z,100374.52
2022-10-06T02:49:22.528Z,100375.96
2022-10-06T02:51:54.629Z,100373.66
2022-10-06T02:54:25.136Z,100376.89
2022-10-06T02:56:57.138Z,100381.77
2022-10-06T02:59:29.050Z,100384.11
2022-10-06T03:02:01.061Z,100387.36
2022-10-06T03:04:31.721Z,100382.92
2022-10-06T03:07:03.646Z,100389.52
2022-10-06T03:09:40.696Z,100393.61
2022-10-06T03:12:13.622Z,100387.53
2022-10-06T03:14:47.972Z,100392.40
2022-10-06T03:17:20.034Z,100394.83
2022-10-06T03:19:57.074Z,100395.15
2022-10-06T03:22:29.728Z,100399.75
2022-10-06T03:25:02.337Z,100404.33
2022-10-06T03:27:32.796Z,100404.03
2022-10-06T03:30:07.598Z,100409.00
2022-10-06T03:32:39.774Z,100407.11
2022-10-06T03:35:12.920Z,100409.14
2022-10-06T03:37:45.260Z,100406.95
2022-10-06T03:40:18.520Z,100410.38
2022-10-06T03:42:50.920Z,100411.28
2022-10-06T03:45:22.876Z,100412.92
2022-10-06T03:47:57.749Z,100416.46
2022-10-06T03:50:30.073Z,100415.77
2022-10-06T03:53:01.985Z,100419.73
2022-10-06T03:55:34.873Z,100419.36
2022-10-06T03:58:07.030Z,100418.73
2022-10-06T04:00:39.378Z,100421.98
2022-10-06T04:03:11.315Z,100427.27
2022-10-06T04:05:55.188Z,100430.77
2022-10-06T04:08:29.018Z,100430.60
2022-10-06T04:11:09.168Z,100435.02
2022-10-06T04:13:43.044Z,100438.67
2022-10-06T04:16:18.161Z,100440.73
2022-10-06T04:18:52.986Z,100443.40
2022-10-06T04:21:25.784Z,100447.44
2022-10-06T04:24:00.318Z,100445.93
2022-10-06T04:26:33.993Z,100443.10
2022-10-06T04:29:06.464Z,100445.27
2022-10-06T04:31:41.086Z,100442.13
2022-10-06T04:34:16.526Z,100443.15
2022-10-06T04:36:49.650Z,100447.90
2022-10-06T04:39:23.565Z,100449.71
2022-10-06T04:41:55.704Z,100454.08
2022-10-06T04:44:31.818Z,100449.48
2022-10-06T04:47:06.397Z,100454.20
2022-10-06T04:49:37.092Z,100456.95
2022-10-06T04:52:09.104Z,100462.95
2022-10-06T04:54:42.886Z,100458.38
2022-10-06T04:57:15.091Z,100463.35
2022-10-06T05:00:07.863Z,100466.70
2022-10-06T05:02:42.505Z,100473.29
2022-10-06T05:05:15.139Z,100472.67
2022-10-06T05:07:47.820Z,100475.80
2022-10-06T05:10:20.274Z,100482.09
2022-10-06T05:12:52.701Z,100484.25
2022-10-06T05:15:24.730Z,100479.59
2022-10-06T05:17:55.150Z,100488.32
2022-10-06T05:20:27.635Z,100491.61
2022-10-06T05:22:59.531Z,100496.48
2022-10-06T05:25:31.537Z,100497.67
2022-10-06T05:28:03.602Z,100502.41
2022-10-06T05:30:36.055Z,100500.76
2022-10-06T05:33:08.092Z,100512.07
2022-10-06T05:35:40.264Z,100515.31
2022-10-06T05:38:11.809Z,100518.27
2022-10-06T05:40:43.867Z,100525.86
2022-10-06T05:43:17.163Z,100532.41
2022-10-06T05:46:00.265Z,100535.16
2022-10-06T05:48:33.177Z,100537.93
2022-10-06T05:51:07.800Z,100546.59
2022-10-06T05:53:41.421Z,100548.77
2022-10-06T05:56:16.109Z,100548.45
2022-10-06T05:58:49.732Z,100555.37
2022-10-06T06:01:24.228Z,100562.41
2022-10-06T06:04:00.663Z,100574.05
2022-10-06T06:06:38.850Z,100569.73
2022-10-06T06:09:15.954Z,100573.38
2022-10-06T06:11:50.298Z,100582.85
2022-10-06T06:14:45.899Z,100582.70
2022-10-06T06:17:24.850Z,100584.95
2022-10-06T06:19:55.223Z,100586.45
2022-10-06T06:22:27.673Z,100590.84
2022-10-06T06:24:59.843Z,100587.91
2022-10-06T06:27:32.383Z,100595.79
2022-10-06T06:30:06.222Z,100602.39
2022-10-06T06:32:40.269Z,100607.08
2022-10-06T06:35:13.155Z,100608.77
2022-10-06T06:37:47.036Z,100612.55
2022-10-06T06:40:19.207Z,100616.81
2022-10-06T06:42:53.714Z,100614.38
2022-10-06T06:45:44.695Z,100618.71
2022-10-06T06:48:24.484Z,100620.14
2022-10-06T06:51:00.109Z,100625.08
2022-10-06T06:53:35.199Z,100623.78
2022-10-06T06:56:09.410Z,100621.55
2022-10-06T06:58:46.361Z,100626.81
2022-10-06T07:01:20.708Z,100629.69
2022-10-06T07:03:58.344Z,100635.74
2022-10-06T07:06:33.586Z,100634.85
2022-10-06T07:09:07.664Z,100630.31
2022-10-06T07:11:42.172Z,100626.23
2022-10-06T07:14:18.445Z,100632.79
2022-10-06T07:17:10.014Z,100630.64
2022-10-06T07:20:02.354Z,100633.23
2022-10-06T07:22:56.325Z,100637.50
2022-10-06T07:25:29.029Z,100628.39
2022-10-06T07:28:04.096Z,100630.42
2022-10-06T07:30:42.202Z,100626.30
2022-10-06T07:33:18.078Z,100615.58
2022-10-06T07:35:50.552Z,100621.23
2022-10-06T07:38:26.025Z,100618.17
2022-10-06T07:41:18.268Z,100622.21
2022-10-06T07:43:54.664Z,100636.73
2022-10-06T07:46:27.639Z,100635.01
2022-10-06T07:49:21.357Z,100635.52
2022-10-06T07:51:53.756Z,100642.27
2022-10-06T07:54:27.470Z,100646.98
2022-10-06T07:57:17.149Z,100648.00
2022-10-06T07:59:49.025Z,100652.21
2022-10-06T08:02:23.285Z,100655.45
2022-10-06T08:04:56.180Z,100661.65
2022-10-06T08:07:29.036Z,100669.23
2022-10-06T08:10:01.323Z,100675.45
2022-10-06T08:12:37.819Z,100682.27
2022-10-06T08:15:14.430Z,100683.23
2022-10-06T08:17:47.249Z,100688.29
2022-10-06T08:20:19.183Z,100685.94
2022-10-06T08:22:51.684Z,100690.55
2022-10-06T08:25:23.743Z,100695.58
2022-10-06T08:27:55.697Z,100700.86
2022-10-06T08:30:27.750Z,100704.73
2022-10-06T08:33:00.302Z,100705.19
2022-10-06T08:35:32.381Z,100708.55
2022-10-06T08:38:04.365Z,100710.41
2022-10-06T08:40:36.898Z,100710.67
2022-10-06T08:43:17.581Z,100709.14
2022-10-06T08:45:50.336Z,100712.21
2022-10-06T08:48:30.082Z,100712.39
2022-10-06T08:51:09.806Z,100711.86
2022-10-06T08:53:47.158Z,100712.31
2022-10-06T08:56:21.894Z,100712.45
2022-10-06T08:58:58.503Z,100722.27
2022-10-06T09:01:33.982Z,100725.34
2022-10-06T09:04:07.905Z,100725.60
2022-10-06T09:06:50.161Z,100727.02
2022-10-06T09:09:36.112Z,100725.77
2022-10-06T09:12:18.182Z,100724.94
2022-10-06T09:14:54.816Z,100721.42
2022-10-06T09:17:32.865Z,100725.36
2022-10-06T09:20:09.532Z,100724.70
2022-10-06T09:22:42.472Z,100729.42
2022-10-06T09:25:20.540Z,100728.41
2022-10-06T09:27:56.619Z,100733.97
2022-10-06T09:30:29.159Z,100731.80
2022-10-06T09:33:04.428Z,100735.88
2022-10-06T09:35:56.715Z,100744.39
2022-10-06T09:38:48.978Z,100748.16
2022-10-06T09:41:22.275Z,100751.65
2022-10-06T09:43:59.767Z,100755.52
2022-10-06T09:46:39.816Z,100760.16
2022-10-06T09:49:20.828Z,100756.17
2022-10-06T09:52:05.339Z,100764.92
2022-10-06T09:54:38.786Z,100767.71
2022-10-06T09:57:19.896Z,100768.70
2022-10-06T09:59:52.933Z,100772.68
2022-10-06T10:02:36.877Z,100777.52
2022-10-06T10:05:23.601Z,100780.63
2022-10-06T10:08:09.136Z,100782.92
2022-10-06T10:10:42.568Z,100785.26
2022-10-06T10:13:24.344Z,100788.48
2022-10-06T10:15:59.901Z,100790.69
2022-10-06T10:18:35.551Z,100795.14
2022-10-06T10:21:10.505Z,100792.33
2022-10-06T10:23:44.686Z,100792.64
2022-10-06T10:26:27.057Z,100796.16
2022-10-06T10:29:16.146Z,100796.69
2022-10-06T10:31:57.028Z,100799.31
2022-10-06T10:34:58.765Z,100809.48
2022-10-06T10:37:39.808Z,100810.68
2022-10-06T10:40:24.793Z,100807.57
2022-10-06T10:43:06.436Z,100809.06
2022-10-06T10:45:42.922Z,100811.94
2022-10-06T10:48:20.802Z,100808.89
2022-10-06T10:50:58.521Z,100812.14
2022-10-06T10:53:47.672Z,100814.52
2022-10-06T10:56:24.661Z,100812.11
2022-10-06T10:59:02.024Z,100814.14
2022-10-06T11:01:40.109Z,100817.52
2022-10-06T11:04:15.143Z,100817.79
2022-10-06T11:07:13.837Z,100819.83
2022-10-06T11:09:54.208Z,100821.80
2022-10-06T11:12:40.528Z,100823.86
2022-10-06T11:15:22.520Z,100825.71
2022-10-06T11:18:02.669Z,100826.55
2022-10-06T11:20:46.048Z,100823.98
2022-10-06T11:23:47.889Z,100830.55
2022-10-06T11:26:38.117Z,100832.98
2022-10-06T11:29:21.705Z,100833.21
2022-10-06T11:32:04.298Z,100833.52
2022-10-06T11:34:36.246Z,100829.30
2022-10-06T11:37:21.179Z,100830.80
2022-10-06T11:39:59.707Z,100831.46
2022-10-06T11:42:40.661Z,100835.04
2022-10-06T11:45:17.163Z,100833.16
2022-10-06T11:48:11.029Z,100840.20
2022-10-06T11:50:44.633Z,100845.94
2022-10-06T11:53:38.013Z,100853.24
2022-10-06T11:56:44.228Z,100855.56
2022-10-06T11:59:32.364Z,100860.53
2022-10-06T12:02:05.090Z,100863.83
2022-10-06T12:04:37.074Z,100867.09
2022-10-06T12:07:10.925Z,100871.45
2022-10-06T12:10:15.853Z,100875.57
2022-10-06T12:13:06.640Z,100878.10
2022-10-06T12:18:55.890Z,100880.14
2022-10-06T12:21:44.954Z,100884.57
2022-10-06T12:24:42.548Z,100889.80
2022-10-06T12:27:40.109Z,100889.47
2022-10-06T12:30:23.423Z,100890.93
2022-10-06T12:32:57.428Z,100897.10
2022-10-06T12:35:34.136Z,100897.55
2022-10-06T12:38:06.820Z,100898.59
2022-10-06T12:40:59.475Z,100901.86
2022-10-06T12:43:53.790Z,100899.36
2022-10-06T12:46:35.169Z,100905.67
2022-10-06T12:49:25.156Z,100911.52
2022-10-06T12:51:59.829Z,100914.96
2022-10-06T12:54:37.430Z,100918.48
2022-10-06T12:57:20.097Z,100930.49
2022-10-06T12:59:52.157Z,100934.99
2022-10-06T13:02:26.740Z,100940.09
2022-10-06T13:05:03.402Z,100934.10
2022-10-06T13:07:56.570Z,100931.43
2022-10-06T13:10:30.525Z,100936.60
2022-10-06T13:13:02.769Z,100943.34
2022-10-06T13:15:36.258Z,100943.14
2022-10-06T13:18:16.026Z,100949.79
2022-10-06T13:20:50.298Z,100954.92
2022-10-06T13:23:26.818Z,100962.70
2022-10-06T13:26:01.602Z,100960.61
2022-10-06T13:28:48.799Z,100963.04
2022-10-06T13:31:27.060Z,100963.45
2022-10-06T13:34:02.775Z,100967.50
2022-10-06T13:36:38.653Z,100971.10
2022-10-06T13:39:15.517Z,100969.46
2022-10-06T13:41:50.196Z,100974.02
2022-10-06T13:44:32.613Z,100974.29
2022-10-06T13:47:08.322Z,100974.12
2022-10-06T13:49:47.448Z,100974.71
2022-10-06T13:52:23.465Z,100978.48
2022-10-06T13:54:57.895Z,100978.45
2022-10-06T13:57:45.265Z,100973.39
2022-10-06T14:00:22.729Z,100969.95
2022-10-06T14:02:57.416Z,100966.75
2022-10-06T14:05:36.539Z,100968.97
2022-10-06T14:08:24.402Z,100975.91
2022-10-06T14:10:58.951Z,100974.61
2022-10-06T14:13:33.598Z,100976.45
2022-10-06T14:16:08.467Z,100982.39
2022-10-06T14:18:43.548Z,100987.10
2022-10-06T14:21:30.318Z,100988.86
2022-10-06T14:24:06.165Z,100991.81
2022-10-06T14:26:41.743Z,100998.25
2022-10-06T14:29:15.679Z,101003.91
2022-10-06T14:31:48.462Z,101005.60
2022-10-06T14:34:23.074Z,101001.92
2022-10-06T14:36:55.579Z,101003.98
2022-10-06T14:39:28.554Z,101008.48
2022-10-06T14:42:02.076Z,101010.40
2022-10-06T14:44:34.596Z,101014.07
2022-10-06T14:47:06.312Z,101010.36
2022-10-06T14:49:38.539Z,101018.27
2022-10-06T14:52:12.302Z,101017.79
2022-10-06T14:54:45.698Z,101016.88
2022-10-06T14:57:20.592Z,101017.02
2022-10-06T15:00:00.468Z,101014.46
2022-10-06T15:02:33.044Z,101016.25
2022-10-06T15:05:06.742Z,101020.66
2022-10-06T15:07:58.760Z,101022.30
2022-10-06T15:10:31.300Z,101025.45
2022-10-06T15:13:03.247Z,101032.15
2022-10-06T15:15:34.346Z,101034.23
2022-10-06T15:18:06.877Z,101032.16
2022-10-06T15:20:38.853Z,101035.30
2022-10-06T15:23:09.672Z,101036.26
2022-10-06T15:26:11.480Z,101035.98
2022-10-06T15:29:01.608Z,101036.08
2022-10-06T15:31:36.294Z,101041.27
2022-10-06T15:34:10.643Z,101040.62
2022-10-06T15:36:43.713Z,101044.96
2022-10-06T15:39:17.988Z,101047.58
2022-10-06T15:41:50.442Z,101050.88
2022-10-06T15:44:23.772Z,101055.14
2022-10-06T15:46:57.457Z,101054.76
2022-10-06T15:49:30.414Z,101058.33
2022-10-06T15:52:04.955Z,101057.83
2022-10-06T15:54:41.272Z,101062.13
2022-10-06T15:57:20.410Z,101063.20
2022-10-06T15:59:53.644Z,101068.27
2022-10-06T16:02:25.598Z,101068.52
2022-10-06T16:05:19.267Z,101071.06
2022-10-06T16:07:51.404Z,101070.66
2022-10-06T16:10:23.299Z,101068.07
2022-10-06T16:12:55.332Z,101068.20
2022-10-06T16:15:25.739Z,101070.35
2022-10-06T16:17:57.695Z,101072.67
2022-10-06T16:20:29.973Z,101079.70
2022-10-06T16:23:01.798Z,101084.64
2022-10-06T16:25:34.021Z,101093.27
2022-10-06T16:28:06.189Z,101095.38
2022-10-06T16:30:38.118Z,101094.89
2022-10-06T16:33:10.141Z,101092.15
2022-10-06T16:35:42.231Z,101090.80
2022-10-06T16:38:15.137Z,101093.55
2022-10-06T16:40:53.978Z,101098.05
2022-10-06T16:43:30.728Z,101098.09
2022-10-06T16:46:04.461Z,101101.75
2022-10-06T16:48:38.068Z,101103.83
2022-10-06T16:52:26.459Z,101113.98
2022-10-06T16:54:58.504Z,101119.79
2022-10-06T16:57:30.581Z,101118.95
2022-10-06T17:00:05.779Z,101128.48
2022-10-06T17:02:38.873Z,101123.75
2022-10-06T17:05:11.582Z,101128.34
2022-10-06T17:07:43.641Z,101130.52
2022-10-06T17:10:20.534Z,101135.23
2022-10-06T17:12:53.456Z,101143.04
2022-10-06T17:15:28.095Z,101142.55
2022-10-06T17:18:02.557Z,101142.02
2022-10-06T17:20:34.701Z,101142.12
2022-10-06T17:23:06.610Z,101144.15
2022-10-06T17:25:37.183Z,101150.02
2022-10-06T17:28:09.891Z,101153.68
2022-10-06T17:30:41.773Z,101155.21
2022-10-06T17:33:13.902Z,101162.18
2022-10-06T17:35:46.361Z,101160.18
2022-10-06T17:38:18.451Z,101161.00
2022-10-06T17:40:50.267Z,101160.09
2022-10-06T17:43:23.379Z,101160.79
2022-10-06T17:45:55.377Z,101161.62
2022-10-06T17:48:29.834Z,101162.54
2022-10-06T17:51:02.131Z,101161.02
2022-10-06T17:53:34.209Z,101164.05
2022-10-06T17:56:09.216Z,101163.52
2022-10-06T17:58:43.060Z,101166.87
2022-10-06T18:01:18.269Z,101167.17
2022-10-06T18:03:52.877Z,101163.48
2022-10-06T18:06:27.092Z,101169.46
2022-10-06T18:09:02.494Z,101168.04
2022-10-06T18:11:38.404Z,101171.22
2022-10-06T18:14:12.008Z,101175.40
2022-10-06T18:16:45.393Z,101177.39
2022-10-06T18:19:18.962Z,101183.82
2022-10-06T18:21:50.916Z,101184.73
2022-10-06T18:24:25.037Z,101185.15
2022-10-06T18:26:58.522Z,101185.28
2022-10-06T18:29:32.461Z,101185.27
2022-10-06T18:32:58.962Z,101180.88
2022-10-06T18:36:11.006Z,101188.45
2022-10-06T18:37:51.103Z,101194.79
2022-10-06T18:40:25.078Z,101194.06
2022-10-06T18:42:57.318Z,101197.68
2022-10-06T18:45:49.529Z,101198.15
2022-10-06T18:48:41.004Z,101200.33
2022-10-06T18:51:15.439Z,101194.38
2022-10-06T18:53:48.147Z,101200.20
2022-10-06T18:56:21.874Z,101200.95
2022-10-06T18:58:55.059Z,101203.81
2022-10-06T19:01:30.661Z,101203.48
2022-10-06T19:04:06.211Z,101202.58
2022-10-06T19:06:42.860Z,101202.75
2022-10-06T19:09:18.001Z,101206.77
2022-10-06T19:11:53.052Z,101207.20
2022-10-06T19:14:27.561Z,101210.82
2022-10-06T19:17:02.408Z,101215.39
2022-10-06T19:19:35.390Z,101214.70
2022-10-06T19:22:07.907Z,101217.73
2022-10-06T19:24:42.068Z,101221.55
2022-10-06T19:27:16.147Z,101218.40
2022-10-06T19:29:51.595Z,101219.77
2022-10-06T19:32:27.526Z,101225.55
2022-10-06T19:35:00.284Z,101225.13
2022-10-06T19:37:35.192Z,101227.65
2022-10-06T19:40:14.498Z,101229.48
2022-10-06T19:42:51.161Z,101229.66
2022-10-06T19:45:25.873Z,101230.90
2022-10-06T19:47:57.879Z,101230.77
2022-10-06T19:50:30.304Z,101232.30
2022-10-06T19:53:04.977Z,101235.94
2022-10-06T19:55:41.099Z,101238.77
2022-10-06T19:58:25.240Z,101239.27
2022-10-06T20:00:57.397Z,101237.34
2022-10-06T20:03:39.842Z,101238.39
2022-10-06T20:06:16.501Z,101236.35
2022-10-06T20:08:54.160Z,101238.65
2022-10-06T20:11:28.393Z,101241.27
2022-10-06T20:14:03.865Z,101244.36
2022-10-06T20:16:44.163Z,101246.89
2022-10-06T20:19:20.351Z,101243.92
2022-10-06T20:21:55.957Z,101247.77
2022-10-06T20:24:34.245Z,101247.06
2022-10-06T20:27:13.162Z,101246.48
2022-10-06T20:29:45.240Z,101249.34
2022-10-06T20:32:17.187Z,101249.23
2022-10-06T20:34:47.599Z,101248.57
2022-10-06T20:37:19.425Z,101251.60
2022-10-06T20:40:08.589Z,101250.73
2022-10-06T20:42:44.820Z,101247.27
2022-10-06T20:45:17.148Z,101251.83
2022-10-06T20:47:49.054Z,101251.36
2022-10-06T20:50:21.284Z,101251.03
2022-10-06T20:52:54.722Z,101245.38
2022-10-06T20:55:26.641Z,101250.20
2022-10-06T20:57:58.748Z,101252.36
2022-10-06T21:00:30.811Z,101258.24
2022-10-06T21:03:03.170Z,101260.98
2022-10-06T21:05:35.401Z,101263.77
2022-10-06T21:08:05.720Z,101260.38
2022-10-06T21:10:37.895Z,101257.21
2022-10-06T21:13:08.308Z,101254.34
2022-10-06T21:15:46.412Z,101256.48
2022-10-06T21:18:18.521Z,101255.16
2022-10-06T21:21:00.501Z,101256.92
2022-10-06T21:23:37.106Z,101258.17
2022-10-06T21:26:12.480Z,101253.08
2022-10-06T21:28:44.948Z,101248.85
2022-10-06T21:31:19.244Z,101253.52
2022-10-06T21:33:51.951Z,101260.41
2022-10-06T21:36:26.148Z,101262.16
2022-10-06T21:38:59.438Z,101264.64
2022-10-06T21:41:36.046Z,101260.15
2022-10-06T21:44:10.025Z,101260.41
2022-10-06T21:46:46.338Z,101264.71
2022-10-06T21:49:19.828Z,101263.40
2022-10-06T21:51:53.682Z,101268.74
2022-10-06T21:54:26.517Z,101270.25
2022-10-06T21:56:59.208Z,101267.19
2022-10-06T21:59:31.102Z,101267.31
2022-10-06T22:02:03.046Z,101267.52
2022-10-06T22:04:35.439Z,101270.96
2022-10-06T22:07:07.579Z,101273.02
2022-10-06T22:09:38.202Z,101272.85
2022-10-06T22:12:10.121Z,101269.16
2022-10-06T22:14:41.982Z,101267.25
2022-10-06T22:17:14.055Z,101266.75
2022-10-06T22:19:45.903Z,101268.45
2022-10-06T22:22:17.854Z,101266.84
2022-10-06T22:24:49.779Z,101265.49
2022-10-06T22:27:21.584Z,101262.17
2022-10-06T22:29:53.578Z,101264.68
2022-10-06T22:32:25.443Z,101263.85
2022-10-06T22:34:57.506Z,101261.24
2022-10-06T22:37:29.430Z,101261.63
2022-10-06T22:40:06.683Z,101264.40
2022-10-06T22:42:39.570Z,101263.80
2022-10-06T22:45:12.541Z,101267.52
2022-10-06T22:47:44.772Z,101267.35
2022-10-06T22:50:16.984Z,101266.59
2022-10-06T22:52:48.926Z,101267.60
2022-10-06T22:55:19.595Z,101260.27
2022-10-06T22:57:52.008Z,101262.27
2022-10-06T23:00:27.623Z,101263.94
2022-10-06T23:02:59.920Z,101263.45
2022-10-06T23:05:30.502Z,101259.92
2022-10-06T23:08:02.866Z,101261.23
2022-10-06T23:10:35.970Z,101256.56
2022-10-06T23:13:07.749Z,101257.38
2022-10-06T23:15:39.700Z,101255.94
2022-10-06T23:18:12.189Z,101259.42
2022-10-06T23:20:44.324Z,101258.02
2022-10-06T23:23:14.638Z,101260.38
2022-10-06T23:25:46.519Z,101262.79
2022-10-06T23:28:18.638Z,101266.95
2022-10-06T23:30:49.071Z,101264.20
2022-10-06T23:33:21.478Z,101261.15
2022-10-06T23:35:58.425Z,101260.85
2022-10-06T23:38:30.484Z,101259.61
2022-10-06T23:41:02.739Z,101263.48
2022-10-06T23:43:33.550Z,101264.27
2022-10-06T23:46:06.352Z,101260.55
2022-10-06T23:48:38.521Z,101262.08
2022-10-06T23:51:12.362Z,101266.44
2022-10-06T23:53:44.707Z,101266.48
2022-10-06T23:56:16.727Z,101267.25
2022-10-06T23:58:49.004Z,101266.27
